sensor_id;sensor_type;location;lat;lon;timestamp;P1;durP1;ratioP1;P2;durP2;ratioP2
48935;SDS011;34745;52.276;10.528;2023-04-25T00:02:10;13.67;;;5.23;;
48935;SDS011;34745;52.276;10.528;2023-04-25T00:04:39;14.10;;;4.93;;
48935;SDS011;34745;52.276;10.528;2023-04-25T00:07:06;14.30;;;5.33;;
48935;SDS011;34745;52.276;10.528;2023-04-25T00:09:33;14.30;;;5.20;;
48935;SDS011;34745;52.276;10.528;2023-04-25T00:12:00;13.83;;;5.30;;
48935;SDS011;34745;52.276;10.528;2023-04-25T00:14:28;15.43;;;5.47;;
48935;SDS011;34745;52.276;10.528;2023-04-25T00:16:55;15.20;;;5.47;;
48935;SDS011;34745;52.276;10.528;2023-04-25T00:19:22;13.80;;;6.10;;
48935;SDS011;34745;52.276;10.528;2023-04-25T00:21:50;7.57;;;4.87;;
48935;SDS011;34745;52.276;10.528;2023-04-25T00:24:18;16.73;;;5.17;;
48935;SDS011;34745;52.276;10.528;2023-04-25T00:26:45;14.87;;;5.00;;
48935;SDS011;34745;52.276;10.528;2023-04-25T00:29:12;15.27;;;5.80;;
48935;SDS011;34745;52.276;10.528;2023-04-25T00:31:39;11.60;;;5.70;;
48935;SDS011;34745;52.276;10.528;2023-04-25T00:34:06;14.23;;;5.53;;
48935;SDS011;34745;52.276;10.528;2023-04-25T00:36:34;14.97;;;5.60;;
48935;SDS011;34745;52.276;10.528;2023-04-25T00:39:03;15.90;;;6.20;;
48935;SDS011;34745;52.276;10.528;2023-04-25T00:41:30;13.17;;;5.20;;
48935;SDS011;34745;52.276;10.528;2023-04-25T00:43:58;17.47;;;6.80;;
48935;SDS011;34745;52.276;10.528;2023-04-25T00:46:26;20.93;;;5.93;;
48935;SDS011;34745;52.276;10.528;2023-04-25T00:48:53;14.80;;;6.47;;
48935;SDS011;34745;52.276;10.528;2023-04-25T00:51:20;18.77;;;6.60;;
48935;SDS011;34745;52.276;10.528;2023-04-25T00:53:48;12.67;;;6.30;;
48935;SDS011;34745;52.276;10.528;2023-04-25T00:56:18;16.27;;;5.43;;
48935;SDS011;34745;52.276;10.528;2023-04-25T00:58:47;13.37;;;5.63;;
48935;SDS011;34745;52.276;10.528;2023-04-25T01:01:14;17.20;;;5.90;;
48935;SDS011;34745;52.276;10.528;2023-04-25T01:03:41;16.73;;;5.53;;
48935;SDS011;34745;52.276;10.528;2023-04-25T01:06:09;12.10;;;5.60;;
48935;SDS011;34745;52.276;10.528;2023-04-25T01:08:36;16.93;;;5.60;;
48935;SDS011;34745;52.276;10.528;2023-04-25T01:11:05;15.00;;;5.50;;
48935;SDS011;34745;52.276;10.528;2023-04-25T01:13:34;17.50;;;6.20;;
48935;SDS011;34745;52.276;10.528;2023-04-25T01:16:01;15.47;;;5.47;;
48935;SDS011;34745;52.276;10.528;2023-04-25T01:18:29;17.77;;;5.20;;
48935;SDS011;34745;52.276;10.528;2023-04-25T01:20:56;14.43;;;5.30;;
48935;SDS011;34745;52.276;10.528;2023-04-25T01:23:29;16.63;;;5.80;;
48935;SDS011;34745;52.276;10.528;2023-04-25T01:25:56;14.80;;;5.57;;
48935;SDS011;34745;52.276;10.528;2023-04-25T01:28:23;17.87;;;6.50;;
48935;SDS011;34745;52.276;10.528;2023-04-25T01:30:50;15.70;;;6.40;;
48935;SDS011;34745;52.276;10.528;2023-04-25T01:33:18;17.07;;;6.23;;
48935;SDS011;34745;52.276;10.528;2023-04-25T01:35:47;13.67;;;5.83;;
48935;SDS011;34745;52.276;10.528;2023-04-25T01:38:15;14.50;;;6.03;;
48935;SDS011;34745;52.276;10.528;2023-04-25T01:40:43;13.03;;;6.10;;
48935;SDS011;34745;52.276;10.528;2023-04-25T01:43:12;9.77;;;5.20;;
48935;SDS011;34745;52.276;10.528;2023-04-25T01:45:40;15.40;;;6.97;;
48935;SDS011;34745;52.276;10.528;2023-04-25T01:48:08;21.03;;;6.53;;
48935;SDS011;34745;52.276;10.528;2023-04-25T01:50:36;20.37;;;6.87;;
48935;SDS011;34745;52.276;10.528;2023-04-25T01:53:04;17.40;;;6.87;;
48935;SDS011;34745;52.276;10.528;2023-04-25T01:55:33;20.30;;;6.83;;
48935;SDS011;34745;52.276;10.528;2023-04-25T01:58:00;18.07;;;7.37;;
48935;SDS011;34745;52.276;10.528;2023-04-25T02:00:28;11.53;;;6.67;;
48935;SDS011;34745;52.276;10.528;2023-04-25T02:02:57;15.93;;;7.47;;
48935;SDS011;34745;52.276;10.528;2023-04-25T02:05:24;13.03;;;6.63;;
48935;SDS011;34745;52.276;10.528;2023-04-25T02:07:52;14.47;;;5.93;;
48935;SDS011;34745;52.276;10.528;2023-04-25T02:10:18;23.00;;;7.93;;
48935;SDS011;34745;52.276;10.528;2023-04-25T02:12:47;15.80;;;6.93;;
48935;SDS011;34745;52.276;10.528;2023-04-25T02:15:14;14.30;;;7.30;;
48935;SDS011;34745;52.276;10.528;2023-04-25T02:17:41;17.10;;;7.00;;
48935;SDS011;34745;52.276;10.528;2023-04-25T02:20:08;15.00;;;7.13;;
48935;SDS011;34745;52.276;10.528;2023-04-25T02:22:36;14.60;;;7.00;;
48935;SDS011;34745;52.276;10.528;2023-04-25T02:25:04;14.97;;;6.80;;
48935;SDS011;34745;52.276;10.528;2023-04-25T02:27:31;18.57;;;7.77;;
48935;SDS011;34745;52.276;10.528;2023-04-25T02:29:59;12.03;;;7.37;;
48935;SDS011;34745;52.276;10.528;2023-04-25T02:32:26;17.43;;;7.20;;
48935;SDS011;34745;52.276;10.528;2023-04-25T02:34:53;13.43;;;7.40;;
48935;SDS011;34745;52.276;10.528;2023-04-25T02:37:21;19.23;;;7.53;;
48935;SDS011;34745;52.276;10.528;2023-04-25T02:39:47;12.03;;;6.97;;
48935;SDS011;34745;52.276;10.528;2023-04-25T02:42:15;14.50;;;7.20;;
48935;SDS011;34745;52.276;10.528;2023-04-25T02:44:42;15.83;;;7.77;;
48935;SDS011;34745;52.276;10.528;2023-04-25T02:47:10;16.37;;;7.87;;
48935;SDS011;34745;52.276;10.528;2023-04-25T02:49:37;16.37;;;6.90;;
48935;SDS011;34745;52.276;10.528;2023-04-25T02:52:04;14.97;;;8.27;;
48935;SDS011;34745;52.276;10.528;2023-04-25T02:54:31;14.37;;;7.40;;
48935;SDS011;34745;52.276;10.528;2023-04-25T02:56:58;16.50;;;8.57;;
48935;SDS011;34745;52.276;10.528;2023-04-25T02:59:26;16.47;;;8.30;;
48935;SDS011;34745;52.276;10.528;2023-04-25T03:01:53;18.53;;;7.90;;
48935;SDS011;34745;52.276;10.528;2023-04-25T03:04:22;18.50;;;9.47;;
48935;SDS011;34745;52.276;10.528;2023-04-25T03:06:50;23.07;;;8.30;;
48935;SDS011;34745;52.276;10.528;2023-04-25T03:09:17;14.03;;;7.60;;
48935;SDS011;34745;52.276;10.528;2023-04-25T03:11:44;13.70;;;6.10;;
48935;SDS011;34745;52.276;10.528;2023-04-25T03:14:12;16.77;;;8.07;;
48935;SDS011;34745;52.276;10.528;2023-04-25T03:16:39;19.23;;;9.03;;
48935;SDS011;34745;52.276;10.528;2023-04-25T03:19:06;21.60;;;9.03;;
48935;SDS011;34745;52.276;10.528;2023-04-25T03:21:35;16.80;;;9.00;;
48935;SDS011;34745;52.276;10.528;2023-04-25T03:24:03;17.00;;;9.03;;
48935;SDS011;34745;52.276;10.528;2023-04-25T03:26:32;20.93;;;9.80;;
48935;SDS011;34745;52.276;10.528;2023-04-25T03:28:59;18.17;;;9.20;;
48935;SDS011;34745;52.276;10.528;2023-04-25T03:31:25;17.40;;;8.90;;
48935;SDS011;34745;52.276;10.528;2023-04-25T03:33:53;18.20;;;9.27;;
48935;SDS011;34745;52.276;10.528;2023-04-25T03:36:19;20.93;;;8.97;;
48935;SDS011;34745;52.276;10.528;2023-04-25T03:38:47;19.27;;;8.73;;
48935;SDS011;34745;52.276;10.528;2023-04-25T03:41:14;18.03;;;10.23;;
48935;SDS011;34745;52.276;10.528;2023-04-25T03:43:41;18.80;;;10.30;;
48935;SDS011;34745;52.276;10.528;2023-04-25T03:46:08;22.67;;;10.50;;
48935;SDS011;34745;52.276;10.528;2023-04-25T03:48:35;26.20;;;9.03;;
48935;SDS011;34745;52.276;10.528;2023-04-25T03:51:02;16.40;;;6.60;;
48935;SDS011;34745;52.276;10.528;2023-04-25T03:53:29;26.23;;;8.67;;
48935;SDS011;34745;52.276;10.528;2023-04-25T03:55:58;20.07;;;7.40;;
48935;SDS011;34745;52.276;10.528;2023-04-25T03:58:24;22.47;;;6.23;;
48935;SDS011;34745;52.276;10.528;2023-04-25T04:00:52;18.50;;;6.47;;
48935;SDS011;34745;52.276;10.528;2023-04-25T04:03:19;20.27;;;5.60;;
48935;SDS011;34745;52.276;10.528;2023-04-25T04:05:47;17.13;;;4.97;;
48935;SDS011;34745;52.276;10.528;2023-04-25T04:08:14;22.17;;;5.80;;
48935;SDS011;34745;52.276;10.528;2023-04-25T04:10:44;17.93;;;5.53;;
48935;SDS011;34745;52.276;10.528;2023-04-25T04:13:12;20.07;;;4.80;;
48935;SDS011;34745;52.276;10.528;2023-04-25T04:15:39;18.10;;;4.87;;
48935;SDS011;34745;52.276;10.528;2023-04-25T04:18:06;22.73;;;5.03;;
48935;SDS011;34745;52.276;10.528;2023-04-25T04:20:34;20.77;;;5.53;;
48935;SDS011;34745;52.276;10.528;2023-04-25T04:23:01;19.97;;;5.17;;
48935;SDS011;34745;52.276;10.528;2023-04-25T04:25:28;19.07;;;4.87;;
48935;SDS011;34745;52.276;10.528;2023-04-25T04:27:56;27.47;;;5.80;;
48935;SDS011;34745;52.276;10.528;2023-04-25T04:30:25;20.00;;;5.60;;
48935;SDS011;34745;52.276;10.528;2023-04-25T04:32:51;24.50;;;8.53;;
48935;SDS011;34745;52.276;10.528;2023-04-25T04:35:18;28.17;;;6.30;;
48935;SDS011;34745;52.276;10.528;2023-04-25T04:37:45;25.07;;;5.87;;
48935;SDS011;34745;52.276;10.528;2023-04-25T04:40:12;24.23;;;6.27;;
48935;SDS011;34745;52.276;10.528;2023-04-25T04:42:41;23.90;;;6.03;;
48935;SDS011;34745;52.276;10.528;2023-04-25T04:45:09;19.73;;;5.20;;
48935;SDS011;34745;52.276;10.528;2023-04-25T04:47:38;23.57;;;5.87;;
48935;SDS011;34745;52.276;10.528;2023-04-25T04:50:06;23.10;;;5.80;;
48935;SDS011;34745;52.276;10.528;2023-04-25T04:52:35;25.90;;;6.10;;
48935;SDS011;34745;52.276;10.528;2023-04-25T04:55:02;26.97;;;5.50;;
48935;SDS011;34745;52.276;10.528;2023-04-25T04:57:30;26.07;;;6.23;;
48935;SDS011;34745;52.276;10.528;2023-04-25T04:59:59;30.07;;;6.83;;
48935;SDS011;34745;52.276;10.528;2023-04-25T05:02:26;22.63;;;5.60;;
48935;SDS011;34745;52.276;10.528;2023-04-25T05:04:55;26.70;;;6.63;;
48935;SDS011;34745;52.276;10.528;2023-04-25T05:07:23;31.83;;;6.20;;
48935;SDS011;34745;52.276;10.528;2023-04-25T05:09:50;27.43;;;6.20;;
48935;SDS011;34745;52.276;10.528;2023-04-25T05:12:17;31.43;;;5.90;;
48935;SDS011;34745;52.276;10.528;2023-04-25T05:14:44;23.77;;;5.60;;
48935;SDS011;34745;52.276;10.528;2023-04-25T05:17:11;32.67;;;6.30;;
48935;SDS011;34745;52.276;10.528;2023-04-25T05:19:38;32.57;;;5.60;;
48935;SDS011;34745;52.276;10.528;2023-04-25T05:22:07;32.83;;;6.40;;
48935;SDS011;34745;52.276;10.528;2023-04-25T05:24:34;28.17;;;5.50;;
48935;SDS011;34745;52.276;10.528;2023-04-25T05:27:01;19.33;;;5.73;;
48935;SDS011;34745;52.276;10.528;2023-04-25T05:29:28;25.70;;;5.40;;
48935;SDS011;34745;52.276;10.528;2023-04-25T05:31:56;25.53;;;5.77;;
48935;SDS011;34745;52.276;10.528;2023-04-25T05:34:22;30.87;;;6.07;;
48935;SDS011;34745;52.276;10.528;2023-04-25T05:36:50;24.87;;;5.40;;
48935;SDS011;34745;52.276;10.528;2023-04-25T05:39:18;36.37;;;6.43;;
48935;SDS011;34745;52.276;10.528;2023-04-25T05:41:45;26.63;;;5.37;;
48935;SDS011;34745;52.276;10.528;2023-04-25T05:44:12;27.57;;;6.03;;
48935;SDS011;34745;52.276;10.528;2023-04-25T05:46:39;22.80;;;5.60;;
48935;SDS011;34745;52.276;10.528;2023-04-25T05:49:06;25.37;;;5.10;;
48935;SDS011;34745;52.276;10.528;2023-04-25T05:51:33;30.77;;;5.30;;
48935;SDS011;34745;52.276;10.528;2023-04-25T05:54:00;26.63;;;6.37;;
48935;SDS011;34745;52.276;10.528;2023-04-25T05:56:28;33.27;;;6.27;;
48935;SDS011;34745;52.276;10.528;2023-04-25T05:58:55;24.40;;;5.03;;
48935;SDS011;34745;52.276;10.528;2023-04-25T06:01:22;28.17;;;5.70;;
48935;SDS011;34745;52.276;10.528;2023-04-25T06:03:49;21.53;;;5.13;;
48935;SDS011;34745;52.276;10.528;2023-04-25T06:06:17;23.90;;;6.50;;
48935;SDS011;34745;52.276;10.528;2023-04-25T06:08:44;33.03;;;5.87;;
48935;SDS011;34745;52.276;10.528;2023-04-25T06:11:11;27.50;;;4.80;;
48935;SDS011;34745;52.276;10.528;2023-04-25T06:13:40;25.70;;;5.17;;
48935;SDS011;34745;52.276;10.528;2023-04-25T06:16:07;30.17;;;6.30;;
48935;SDS011;34745;52.276;10.528;2023-04-25T06:18:34;24.10;;;4.87;;
48935;SDS011;34745;52.276;10.528;2023-04-25T06:21:01;27.60;;;5.63;;
48935;SDS011;34745;52.276;10.528;2023-04-25T06:23:28;24.27;;;5.30;;
48935;SDS011;34745;52.276;10.528;2023-04-25T06:25:55;24.33;;;5.07;;
48935;SDS011;34745;52.276;10.528;2023-04-25T06:28:22;23.87;;;5.47;;
48935;SDS011;34745;52.276;10.528;2023-04-25T06:30:52;23.27;;;4.87;;
48935;SDS011;34745;52.276;10.528;2023-04-25T06:33:19;32.70;;;7.33;;
48935;SDS011;34745;52.276;10.528;2023-04-25T06:35:47;17.37;;;4.83;;
48935;SDS011;34745;52.276;10.528;2023-04-25T06:38:13;28.07;;;5.77;;
48935;SDS011;34745;52.276;10.528;2023-04-25T06:40:41;26.47;;;4.57;;
48935;SDS011;34745;52.276;10.528;2023-04-25T06:43:08;20.57;;;4.83;;
48935;SDS011;34745;52.276;10.528;2023-04-25T06:45:35;25.13;;;5.67;;
48935;SDS011;34745;52.276;10.528;2023-04-25T06:48:04;22.37;;;5.20;;
48935;SDS011;34745;52.276;10.528;2023-04-25T06:50:31;34.90;;;4.87;;
48935;SDS011;34745;52.276;10.528;2023-04-25T06:52:58;32.60;;;5.27;;
48935;SDS011;34745;52.276;10.528;2023-04-25T06:55:25;19.87;;;4.13;;
48935;SDS011;34745;52.276;10.528;2023-04-25T06:57:52;24.17;;;4.57;;
48935;SDS011;34745;52.276;10.528;2023-04-25T07:00:19;19.30;;;3.90;;
48935;SDS011;34745;52.276;10.528;2023-04-25T07:02:46;28.93;;;6.33;;
48935;SDS011;34745;52.276;10.528;2023-04-25T07:05:15;30.00;;;5.10;;
48935;SDS011;34745;52.276;10.528;2023-04-25T07:07:44;23.43;;;4.87;;
48935;SDS011;34745;52.276;10.528;2023-04-25T07:10:11;20.83;;;4.50;;
48935;SDS011;34745;52.276;10.528;2023-04-25T07:12:38;18.03;;;4.10;;
48935;SDS011;34745;52.276;10.528;2023-04-25T07:15:06;18.97;;;3.43;;
48935;SDS011;34745;52.276;10.528;2023-04-25T07:17:36;11.30;;;3.17;;
48935;SDS011;34745;52.276;10.528;2023-04-25T07:20:03;24.30;;;3.77;;
48935;SDS011;34745;52.276;10.528;2023-04-25T07:22:33;13.27;;;3.63;;
48935;SDS011;34745;52.276;10.528;2023-04-25T07:25:00;28.60;;;4.17;;
48935;SDS011;34745;52.276;10.528;2023-04-25T07:27:27;16.67;;;3.20;;
48935;SDS011;34745;52.276;10.528;2023-04-25T07:29:54;13.87;;;2.80;;
48935;SDS011;34745;52.276;10.528;2023-04-25T07:32:21;19.90;;;3.40;;
48935;SDS011;34745;52.276;10.528;2023-04-25T07:34:49;22.10;;;3.47;;
48935;SDS011;34745;52.276;10.528;2023-04-25T07:37:17;14.87;;;3.57;;
48935;SDS011;34745;52.276;10.528;2023-04-25T07:39:46;12.97;;;3.00;;
48935;SDS011;34745;52.276;10.528;2023-04-25T07:42:13;10.17;;;2.83;;
48935;SDS011;34745;52.276;10.528;2023-04-25T07:44:41;9.50;;;2.57;;
48935;SDS011;34745;52.276;10.528;2023-04-25T07:47:08;9.60;;;2.53;;
48935;SDS011;34745;52.276;10.528;2023-04-25T07:49:36;19.13;;;3.47;;
48935;SDS011;34745;52.276;10.528;2023-04-25T07:52:04;16.17;;;3.67;;
48935;SDS011;34745;52.276;10.528;2023-04-25T07:54:35;15.13;;;3.80;;
48935;SDS011;34745;52.276;10.528;2023-04-25T07:57:03;17.03;;;4.60;;
48935;SDS011;34745;52.276;10.528;2023-04-25T07:59:32;26.80;;;8.33;;
48935;SDS011;34745;52.276;10.528;2023-04-25T08:01:59;13.43;;;3.20;;
48935;SDS011;34745;52.276;10.528;2023-04-25T08:04:27;13.17;;;2.53;;
48935;SDS011;34745;52.276;10.528;2023-04-25T08:06:55;14.63;;;3.20;;
48935;SDS011;34745;52.276;10.528;2023-04-25T08:09:22;17.87;;;3.17;;
48935;SDS011;34745;52.276;10.528;2023-04-25T08:11:49;10.17;;;2.70;;
48935;SDS011;34745;52.276;10.528;2023-04-25T08:14:17;19.80;;;2.60;;
48935;SDS011;34745;52.276;10.528;2023-04-25T08:16:44;12.10;;;3.30;;
48935;SDS011;34745;52.276;10.528;2023-04-25T08:19:11;15.97;;;3.40;;
48935;SDS011;34745;52.276;10.528;2023-04-25T08:21:38;19.97;;;3.97;;
48935;SDS011;34745;52.276;10.528;2023-04-25T08:24:05;13.67;;;2.97;;
48935;SDS011;34745;52.276;10.528;2023-04-25T08:26:32;20.93;;;3.20;;
48935;SDS011;34745;52.276;10.528;2023-04-25T08:29:00;12.37;;;2.80;;
48935;SDS011;34745;52.276;10.528;2023-04-25T08:31:32;14.63;;;3.33;;
48935;SDS011;34745;52.276;10.528;2023-04-25T08:33:59;16.87;;;3.83;;
48935;SDS011;34745;52.276;10.528;2023-04-25T08:36:27;14.20;;;3.33;;
48935;SDS011;34745;52.276;10.528;2023-04-25T08:38:57;19.53;;;4.23;;
48935;SDS011;34745;52.276;10.528;2023-04-25T08:41:25;14.50;;;3.50;;
48935;SDS011;34745;52.276;10.528;2023-04-25T08:43:52;14.27;;;3.63;;
48935;SDS011;34745;52.276;10.528;2023-04-25T08:46:22;14.27;;;4.63;;
48935;SDS011;34745;52.276;10.528;2023-04-25T08:48:51;24.30;;;4.73;;
48935;SDS011;34745;52.276;10.528;2023-04-25T08:51:23;18.13;;;4.63;;
48935;SDS011;34745;52.276;10.528;2023-04-25T08:53:52;20.07;;;4.47;;
48935;SDS011;34745;52.276;10.528;2023-04-25T08:56:25;20.93;;;4.00;;
48935;SDS011;34745;52.276;10.528;2023-04-25T08:58:54;18.47;;;3.87;;
48935;SDS011;34745;52.276;10.528;2023-04-25T09:01:21;12.53;;;3.10;;
48935;SDS011;34745;52.276;10.528;2023-04-25T09:03:49;19.37;;;2.90;;
48935;SDS011;34745;52.276;10.528;2023-04-25T09:06:17;12.17;;;2.90;;
48935;SDS011;34745;52.276;10.528;2023-04-25T09:08:45;14.13;;;2.60;;
48935;SDS011;34745;52.276;10.528;2023-04-25T09:11:12;8.70;;;3.30;;
48935;SDS011;34745;52.276;10.528;2023-04-25T09:13:40;8.63;;;3.10;;
48935;SDS011;34745;52.276;10.528;2023-04-25T09:16:07;18.57;;;3.43;;
48935;SDS011;34745;52.276;10.528;2023-04-25T09:18:34;12.43;;;2.63;;
48935;SDS011;34745;52.276;10.528;2023-04-25T09:21:04;11.07;;;2.77;;
48935;SDS011;34745;52.276;10.528;2023-04-25T09:23:41;16.37;;;2.97;;
48935;SDS011;34745;52.276;10.528;2023-04-25T09:26:10;10.73;;;2.60;;
48935;SDS011;34745;52.276;10.528;2023-04-25T09:28:40;10.20;;;2.60;;
48935;SDS011;34745;52.276;10.528;2023-04-25T09:31:09;11.70;;;2.93;;
48935;SDS011;34745;52.276;10.528;2023-04-25T09:33:37;13.20;;;3.00;;
48935;SDS011;34745;52.276;10.528;2023-04-25T09:36:05;7.67;;;2.57;;
48935;SDS011;34745;52.276;10.528;2023-04-25T09:38:40;9.83;;;3.03;;
48935;SDS011;34745;52.276;10.528;2023-04-25T09:41:09;10.40;;;2.60;;
48935;SDS011;34745;52.276;10.528;2023-04-25T09:43:37;17.60;;;2.90;;
48935;SDS011;34745;52.276;10.528;2023-04-25T09:46:07;8.83;;;2.67;;
48935;SDS011;34745;52.276;10.528;2023-04-25T09:48:36;13.33;;;2.67;;
48935;SDS011;34745;52.276;10.528;2023-04-25T09:51:03;9.93;;;2.80;;
48935;SDS011;34745;52.276;10.528;2023-04-25T09:53:34;5.30;;;2.27;;
48935;SDS011;34745;52.276;10.528;2023-04-25T09:56:05;8.07;;;2.50;;
48935;SDS011;34745;52.276;10.528;2023-04-25T09:58:33;7.00;;;2.50;;
48935;SDS011;34745;52.276;10.528;2023-04-25T10:01:03;15.20;;;3.07;;
48935;SDS011;34745;52.276;10.528;2023-04-25T10:03:31;7.93;;;2.93;;
48935;SDS011;34745;52.276;10.528;2023-04-25T10:06:00;24.47;;;3.00;;
48935;SDS011;34745;52.276;10.528;2023-04-25T10:08:29;4.63;;;2.20;;
48935;SDS011;34745;52.276;10.528;2023-04-25T10:10:59;12.17;;;2.67;;
48935;SDS011;34745;52.276;10.528;2023-04-25T10:13:28;8.10;;;2.93;;
48935;SDS011;34745;52.276;10.528;2023-04-25T10:15:56;12.90;;;3.10;;
48935;SDS011;34745;52.276;10.528;2023-04-25T10:18:24;15.33;;;3.00;;
48935;SDS011;34745;52.276;10.528;2023-04-25T10:20:53;8.07;;;2.73;;
48935;SDS011;34745;52.276;10.528;2023-04-25T10:23:21;14.87;;;2.83;;
48935;SDS011;34745;52.276;10.528;2023-04-25T10:25:48;16.17;;;3.17;;
48935;SDS011;34745;52.276;10.528;2023-04-25T10:28:16;8.57;;;2.43;;
48935;SDS011;34745;52.276;10.528;2023-04-25T10:30:57;10.33;;;2.93;;
48935;SDS011;34745;52.276;10.528;2023-04-25T10:33:35;8.33;;;2.97;;
48935;SDS011;34745;52.276;10.528;2023-04-25T10:36:09;10.43;;;2.90;;
48935;SDS011;34745;52.276;10.528;2023-04-25T10:38:37;11.90;;;2.80;;
48935;SDS011;34745;52.276;10.528;2023-04-25T10:41:05;11.03;;;2.90;;
48935;SDS011;34745;52.276;10.528;2023-04-25T10:43:38;12.60;;;2.80;;
48935;SDS011;34745;52.276;10.528;2023-04-25T10:46:14;13.33;;;2.53;;
48935;SDS011;34745;52.276;10.528;2023-04-25T10:48:46;10.50;;;2.33;;
48935;SDS011;34745;52.276;10.528;2023-04-25T10:51:16;17.23;;;2.73;;
48935;SDS011;34745;52.276;10.528;2023-04-25T10:53:44;8.70;;;2.43;;
48935;SDS011;34745;52.276;10.528;2023-04-25T10:56:16;7.23;;;1.90;;
48935;SDS011;34745;52.276;10.528;2023-04-25T10:58:44;7.40;;;2.10;;
48935;SDS011;34745;52.276;10.528;2023-04-25T11:01:15;3.93;;;1.73;;
48935;SDS011;34745;52.276;10.528;2023-04-25T11:03:47;6.10;;;2.20;;
48935;SDS011;34745;52.276;10.528;2023-04-25T11:06:20;12.43;;;2.23;;
48935;SDS011;34745;52.276;10.528;2023-04-25T11:08:50;5.47;;;2.17;;
48935;SDS011;34745;52.276;10.528;2023-04-25T11:11:19;7.97;;;2.13;;
48935;SDS011;34745;52.276;10.528;2023-04-25T11:13:47;8.23;;;2.17;;
48935;SDS011;34745;52.276;10.528;2023-04-25T11:16:17;12.80;;;2.20;;
48935;SDS011;34745;52.276;10.528;2023-04-25T11:18:53;10.73;;;2.43;;
48935;SDS011;34745;52.276;10.528;2023-04-25T11:21:23;5.90;;;2.30;;
48935;SDS011;34745;52.276;10.528;2023-04-25T11:23:52;5.43;;;2.10;;
48935;SDS011;34745;52.276;10.528;2023-04-25T11:26:20;9.07;;;2.30;;
48935;SDS011;34745;52.276;10.528;2023-04-25T11:28:48;6.13;;;2.47;;
48935;SDS011;34745;52.276;10.528;2023-04-25T11:31:15;6.30;;;2.40;;
48935;SDS011;34745;52.276;10.528;2023-04-25T11:33:47;6.57;;;2.00;;
48935;SDS011;34745;52.276;10.528;2023-04-25T11:36:15;8.37;;;1.90;;
48935;SDS011;34745;52.276;10.528;2023-04-25T11:38:42;6.27;;;2.03;;
48935;SDS011;34745;52.276;10.528;2023-04-25T11:41:09;5.13;;;1.90;;
48935;SDS011;34745;52.276;10.528;2023-04-25T11:43:36;10.67;;;2.00;;
48935;SDS011;34745;52.276;10.528;2023-04-25T11:46:06;7.20;;;2.10;;
48935;SDS011;34745;52.276;10.528;2023-04-25T11:48:36;8.37;;;2.40;;
48935;SDS011;34745;52.276;10.528;2023-04-25T11:51:05;8.83;;;2.90;;
48935;SDS011;34745;52.276;10.528;2023-04-25T11:53:32;8.03;;;2.23;;
48935;SDS011;34745;52.276;10.528;2023-04-25T11:56:00;13.37;;;2.80;;
48935;SDS011;34745;52.276;10.528;2023-04-25T11:58:27;8.53;;;2.53;;
48935;SDS011;34745;52.276;10.528;2023-04-25T12:00:54;9.77;;;2.60;;
48935;SDS011;34745;52.276;10.528;2023-04-25T12:03:24;12.00;;;2.17;;
48935;SDS011;34745;52.276;10.528;2023-04-25T12:06:02;10.73;;;2.40;;
48935;SDS011;34745;52.276;10.528;2023-04-25T12:08:31;8.27;;;2.40;;
48935;SDS011;34745;52.276;10.528;2023-04-25T12:10:58;8.00;;;2.00;;
48935;SDS011;34745;52.276;10.528;2023-04-25T12:13:26;5.37;;;1.80;;
48935;SDS011;34745;52.276;10.528;2023-04-25T12:15:54;4.43;;;1.53;;
48935;SDS011;34745;52.276;10.528;2023-04-25T12:18:23;3.77;;;1.80;;
48935;SDS011;34745;52.276;10.528;2023-04-25T12:20:54;7.03;;;1.50;;
48935;SDS011;34745;52.276;10.528;2023-04-25T12:23:25;4.50;;;1.73;;
48935;SDS011;34745;52.276;10.528;2023-04-25T12:25:55;6.10;;;2.10;;
48935;SDS011;34745;52.276;10.528;2023-04-25T12:28:22;6.30;;;1.67;;
48935;SDS011;34745;52.276;10.528;2023-04-25T12:30:51;6.20;;;2.43;;
48935;SDS011;34745;52.276;10.528;2023-04-25T12:33:19;4.37;;;1.90;;
48935;SDS011;34745;52.276;10.528;2023-04-25T12:35:47;6.40;;;2.00;;
48935;SDS011;34745;52.276;10.528;2023-04-25T12:38:20;4.30;;;1.73;;
48935;SDS011;34745;52.276;10.528;2023-04-25T12:40:47;5.37;;;1.27;;
48935;SDS011;34745;52.276;10.528;2023-04-25T12:43:16;4.47;;;1.60;;
48935;SDS011;34745;52.276;10.528;2023-04-25T12:45:44;11.10;;;1.80;;
48935;SDS011;34745;52.276;10.528;2023-04-25T12:48:11;7.57;;;2.13;;
48935;SDS011;34745;52.276;10.528;2023-04-25T12:50:38;10.83;;;2.07;;
48935;SDS011;34745;52.276;10.528;2023-04-25T12:53:05;3.07;;;1.50;;
48935;SDS011;34745;52.276;10.528;2023-04-25T12:55:32;2.93;;;1.63;;
48935;SDS011;34745;52.276;10.528;2023-04-25T12:57:59;6.07;;;1.63;;
48935;SDS011;34745;52.276;10.528;2023-04-25T13:00:27;8.33;;;1.63;;
48935;SDS011;34745;52.276;10.528;2023-04-25T13:02:55;7.30;;;2.00;;
48935;SDS011;34745;52.276;10.528;2023-04-25T13:05:22;5.47;;;1.53;;
48935;SDS011;34745;52.276;10.528;2023-04-25T13:07:49;8.97;;;1.67;;
48935;SDS011;34745;52.276;10.528;2023-04-25T13:10:16;7.10;;;1.90;;
48935;SDS011;34745;52.276;10.528;2023-04-25T13:12:44;5.53;;;2.03;;
48935;SDS011;34745;52.276;10.528;2023-04-25T13:15:12;4.50;;;2.00;;
48935;SDS011;34745;52.276;10.528;2023-04-25T13:17:42;5.00;;;1.80;;
48935;SDS011;34745;52.276;10.528;2023-04-25T13:20:10;3.13;;;1.30;;
48935;SDS011;34745;52.276;10.528;2023-04-25T13:22:37;6.63;;;1.63;;
48935;SDS011;34745;52.276;10.528;2023-04-25T13:25:06;5.30;;;1.80;;
48935;SDS011;34745;52.276;10.528;2023-04-25T13:27:34;6.20;;;1.60;;
48935;SDS011;34745;52.276;10.528;2023-04-25T13:30:03;5.73;;;1.90;;
48935;SDS011;34745;52.276;10.528;2023-04-25T13:32:33;5.50;;;2.30;;
48935;SDS011;34745;52.276;10.528;2023-04-25T13:35:04;4.30;;;1.60;;
48935;SDS011;34745;52.276;10.528;2023-04-25T13:37:35;3.97;;;1.67;;
48935;SDS011;34745;52.276;10.528;2023-04-25T13:40:03;2.60;;;1.57;;
48935;SDS011;34745;52.276;10.528;2023-04-25T13:42:32;6.70;;;1.77;;
48935;SDS011;34745;52.276;10.528;2023-04-25T13:44:59;7.00;;;2.03;;
48935;SDS011;34745;52.276;10.528;2023-04-25T13:47:26;5.07;;;1.87;;
48935;SDS011;34745;52.276;10.528;2023-04-25T13:49:54;5.80;;;1.73;;
48935;SDS011;34745;52.276;10.528;2023-04-25T13:52:22;4.70;;;1.77;;
48935;SDS011;34745;52.276;10.528;2023-04-25T13:54:50;2.70;;;1.60;;
48935;SDS011;34745;52.276;10.528;2023-04-25T13:57:17;8.27;;;2.03;;
48935;SDS011;34745;52.276;10.528;2023-04-25T13:59:45;3.00;;;1.40;;
48935;SDS011;34745;52.276;10.528;2023-04-25T14:02:12;3.10;;;1.27;;
48935;SDS011;34745;52.276;10.528;2023-04-25T14:04:40;4.23;;;1.10;;
48935;SDS011;34745;52.276;10.528;2023-04-25T14:07:07;1.40;;;1.10;;
48935;SDS011;34745;52.276;10.528;2023-04-25T14:09:35;4.93;;;1.30;;
48935;SDS011;34745;52.276;10.528;2023-04-25T14:12:02;2.07;;;1.13;;
48935;SDS011;34745;52.276;10.528;2023-04-25T14:14:30;3.70;;;1.30;;
48935;SDS011;34745;52.276;10.528;2023-04-25T14:16:57;3.77;;;1.30;;
48935;SDS011;34745;52.276;10.528;2023-04-25T14:19:24;9.17;;;1.70;;
48935;SDS011;34745;52.276;10.528;2023-04-25T14:21:51;8.63;;;2.10;;
48935;SDS011;34745;52.276;10.528;2023-04-25T14:24:18;6.63;;;1.80;;
48935;SDS011;34745;52.276;10.528;2023-04-25T14:26:46;7.10;;;1.70;;
48935;SDS011;34745;52.276;10.528;2023-04-25T14:29:13;4.17;;;1.57;;
48935;SDS011;34745;52.276;10.528;2023-04-25T14:31:40;7.00;;;1.80;;